createdAt,value
2023-05-07T00:11:06.404Z,4.80
2023-05-07T00:24:06.405Z,5.50
2023-05-07T00:37:06.871Z,5.00
2023-05-07T00:50:06.439Z,5.30
2023-05-07T01:03:06.502Z,5.20
2023-05-07T01:16:06.512Z,4.80
2023-05-07T01:29:06.536Z,4.00
2023-05-07T01:42:06.577Z,4.00
2023-05-07T01:55:06.568Z,4.70
2023-05-07T02:08:06.581Z,4.00
2023-05-07T02:21:06.726Z,3.80
2023-05-07T02:34:06.678Z,3.60
2023-05-07T02:47:06.684Z,3.70
2023-05-07T03:00:06.737Z,3.90
2023-05-07T03:13:06.881Z,3.50
2023-05-07T03:26:06.769Z,3.65
2023-05-07T03:39:06.769Z,3.50
2023-05-07T03:53:06.781Z,3.60
2023-05-07T04:07:06.807Z,3.30
2023-05-07T04:21:06.955Z,3.20
2023-05-07T04:35:06.846Z,3.50
2023-05-07T04:49:06.912Z,3.20
2023-05-07T05:03:07.031Z,2.90
2023-05-07T05:17:06.899Z,3.30
2023-05-07T05:31:06.991Z,3.00
2023-05-07T05:45:06.939Z,3.20
2023-05-07T05:59:06.985Z,3.30
2023-05-07T06:13:06.999Z,3.20
2023-05-07T06:27:07.023Z,2.90
2023-05-07T06:41:07.008Z,4.40
2023-05-07T06:52:07.004Z,5.90
2023-05-07T07:03:08.868Z,6.80
2023-05-07T07:14:07.024Z,6.60
2023-05-07T07:28:07.122Z,5.70
2023-05-07T07:42:07.063Z,9.30
2023-05-07T07:55:07.097Z,32.90
2023-05-07T08:06:07.106Z,30.00
2023-05-07T08:17:07.133Z,28.30
2023-05-07T08:28:09.162Z,28.20
2023-05-07T08:39:07.178Z,26.75
2023-05-07T08:50:07.176Z,25.30
2023-05-07T09:01:07.209Z,23.10
2023-05-07T09:12:07.223Z,24.80
2023-05-07T09:23:07.237Z,22.20
2023-05-07T09:37:07.269Z,19.60
2023-05-07T09:51:07.289Z,18.05
2023-05-07T10:02:07.349Z,15.70
2023-05-07T10:16:07.299Z,14.10
2023-05-07T10:27:07.308Z,12.80
2023-05-07T10:41:07.320Z,11.50
2023-05-07T10:55:07.382Z,18.70
2023-05-07T11:09:07.341Z,17.10
2023-05-07T11:23:07.360Z,9.30
2023-05-07T11:37:07.374Z,9.60
2023-05-07T11:51:07.440Z,8.10
2023-05-07T12:05:07.437Z,8.00
2023-05-07T12:19:07.442Z,8.90
2023-05-07T12:33:07.515Z,7.70
2023-05-07T12:47:07.490Z,6.90
2023-05-07T13:01:07.565Z,7.60
2023-05-07T13:15:07.610Z,8.10
2023-05-07T13:29:07.564Z,7.50
2023-05-07T13:43:07.682Z,6.80
2023-05-07T13:57:07.640Z,7.90
2023-05-07T14:11:07.630Z,7.40
2023-05-07T14:25:07.706Z,7.80
2023-05-07T14:36:07.682Z,6.80
2023-05-07T14:50:07.690Z,7.10
2023-05-07T15:01:07.736Z,7.50
2023-05-07T15:12:07.754Z,6.30
2023-05-07T15:23:07.756Z,6.90
2023-05-07T15:34:07.800Z,6.10
2023-05-07T15:45:07.801Z,5.70
2023-05-07T15:59:07.848Z,5.55
2023-05-07T16:13:07.923Z,5.45
2023-05-07T16:27:07.886Z,7.30
2023-05-07T16:41:07.892Z,5.50
2023-05-07T16:55:07.929Z,8.60
2023-05-07T17:09:07.957Z,10.40
2023-05-07T17:23:07.958Z,11.30
2023-05-07T17:37:08.002Z,10.50
2023-05-07T17:51:08.018Z,11.10
2023-05-07T18:06:09.969Z,12.70
2023-05-07T18:20:08.110Z,11.50
2023-05-07T18:34:08.073Z,10.60
2023-05-07T18:48:08.157Z,10.30
2023-05-07T19:01:08.571Z,9.90
2023-05-07T19:14:08.130Z,9.75
2023-05-07T19:27:08.225Z,9.10
2023-05-07T19:40:08.250Z,10.80
2023-05-07T19:53:08.252Z,10.50
2023-05-07T20:06:08.270Z,9.10
2023-05-07T20:19:08.280Z,9.30
2023-05-07T20:32:08.371Z,8.50
2023-05-07T20:45:08.366Z,8.20
2023-05-07T20:58:08.346Z,6.70
2023-05-07T21:11:08.368Z,6.90
2023-05-07T21:24:08.372Z,6.50
2023-05-07T21:37:08.445Z,6.00
2023-05-07T21:50:08.434Z,6.00
2023-05-07T22:03:08.493Z,5.70
2023-05-07T22:16:08.490Z,6.00
2023-05-07T22:29:08.481Z,4.90
2023-05-07T22:42:08.507Z,5.10
2023-05-07T22:55:08.522Z,5.00
2023-05-07T23:08:08.546Z,5.10
2023-05-07T23:21:08.540Z,4.50
2023-05-07T23:34:08.612Z,4.30
2023-05-07T23:47:08.655Z,4.50
